»·PEaware :: UAL106 KSFO-KDEN

UAL106 :: KSFO-KDEN

FLIGHT INFORMATION

Flight Status: Arrived
Operator:
United Airlines
More flights by this operator :: More flights under this callsign
Pilot: Drew L. (13237)
Aircraft: BOEING 767-300
(B763)
More flights by this aircraft type
Origin: KSFO San Francisco Intl
United States
Destination: KDEN Denver Intl
United States
More flights between these airports :: More routes between these airports
Route: TRUKN2 TIPRE Q126 EKR KAILE2
File this flight plan on PilotEdge
Remarks: PBN / A1B1C1D1L1O1 NAV / RNVD1E2A1 DAT / V DOF / 180309 REG / N619SB EET / KZLC0031 KZDV0112 RMK / NRP SIMBRIEF
Altitude:
(Current/Filed)
35,000ft
Speed:
(Current/Filed)
445kts
Departed: 09-Mar-18 11:12 AM
Arrived: 09-Mar-18 01:02 PM
Distance/Time
Traveled:
838nm/1:50
Distance/Time
To Go:
Arrived

Flight Plot

Page will automatically refresh every two minutes.


Map Options




Map Legend


Flown Route
Filed Route
Departure Airport
Arrival Airport
Navaid (VOR, NDB)
Fix

Horizontal Profiles

Position Reports

Time Latitude Longitude Heading Altitude Ground
Speed
09-Mar-18 10:17 37.619800 -122.383965 213 24ft 0kts
09-Mar-18 10:18 37.619800 -122.383965 213 24ft 0kts
09-Mar-18 10:19 37.619800 -122.383965 213 24ft 0kts
09-Mar-18 10:20 37.619800 -122.383965 213 24ft 0kts
09-Mar-18 10:21 37.619800 -122.383965 213 24ft 0kts
09-Mar-18 10:22 37.619800 -122.383965 213 24ft 0kts
09-Mar-18 10:23 37.619800 -122.383965 213 24ft 0kts
09-Mar-18 10:24 37.619800 -122.383965 213 24ft 0kts
09-Mar-18 10:25 37.619800 -122.383965 213 24ft 0kts
09-Mar-18 10:26 37.619800 -122.383965 213 24ft 0kts
09-Mar-18 10:27 37.619800 -122.383965 213 24ft 0kts
09-Mar-18 10:28 37.619800 -122.383965 213 24ft 0kts
09-Mar-18 10:29 37.619800 -122.383965 213 24ft 0kts
09-Mar-18 10:30 37.619800 -122.383965 213 24ft 0kts
09-Mar-18 10:31 37.619800 -122.383965 213 24ft 0kts
09-Mar-18 10:32 37.619800 -122.383965 213 24ft 0kts
09-Mar-18 10:33 37.619800 -122.383965 213 24ft 0kts
09-Mar-18 10:34 37.619800 -122.383965 213 24ft 0kts
09-Mar-18 10:35 37.619800 -122.383965 213 24ft 0kts
09-Mar-18 10:36 37.619800 -122.383965 213 24ft 0kts
09-Mar-18 10:37 37.619800 -122.383965 213 24ft 0kts
09-Mar-18 10:38 37.619800 -122.383965 213 24ft 0kts
09-Mar-18 10:39 37.619800 -122.383965 213 24ft 0kts
09-Mar-18 10:40 37.619800 -122.383965 213 24ft 0kts
09-Mar-18 10:41 37.619800 -122.383965 213 24ft 0kts
09-Mar-18 10:42 37.619800 -122.383965 213 24ft 0kts
09-Mar-18 10:43 37.619800 -122.383965 213 24ft 0kts
09-Mar-18 10:44 37.619800 -122.383965 213 24ft 0kts
09-Mar-18 10:45 37.619800 -122.383965 213 24ft 0kts
09-Mar-18 10:46 37.619800 -122.383965 213 24ft 0kts
09-Mar-18 10:47 37.619800 -122.383965 213 24ft 0kts
09-Mar-18 10:48 37.619800 -122.383965 213 24ft 0kts
09-Mar-18 10:49 37.619800 -122.383965 213 24ft 0kts
09-Mar-18 10:50 37.619800 -122.383965 213 24ft 0kts
09-Mar-18 10:51 37.619800 -122.383965 213 24ft 0kts
09-Mar-18 10:52 37.619800 -122.383965 213 24ft 0kts
09-Mar-18 10:53 37.619800 -122.383965 213 24ft 0kts
09-Mar-18 10:54 37.619800 -122.383965 213 24ft 0kts
09-Mar-18 10:55 37.619800 -122.383965 213 24ft 0kts
09-Mar-18 10:56 37.619800 -122.383965 213 24ft 0kts
09-Mar-18 10:57 37.619920 -122.383866 211 24ft 2kts
09-Mar-18 10:58 37.620455 -122.383526 203 24ft 2kts
09-Mar-18 10:59 37.620665 -122.383413 203 24ft 0kts
09-Mar-18 11:00 37.620665 -122.383413 203 24ft 0kts
09-Mar-18 11:01 37.620665 -122.383413 203 24ft 0kts
09-Mar-18 11:02 37.620665 -122.383413 203 24ft 0kts
09-Mar-18 11:03 37.620664 -122.383413 203 24ft 0kts
09-Mar-18 11:04 37.619504 -122.381655 117 24ft 14kts
09-Mar-18 11:05 37.617628 -122.376467 111 24ft 18kts
09-Mar-18 11:06 37.614953 -122.369730 118 24ft 21kts
09-Mar-18 11:07 37.611835 -122.363407 119 24ft 21kts
09-Mar-18 11:08 37.610711 -122.359261 44 24ft 0kts
09-Mar-18 11:09 37.610750 -122.359218 41 24ft 2kts
09-Mar-18 11:10 37.611997 -122.359164 307 24ft 6kts
09-Mar-18 11:11 37.622484 -122.383697 300 336ft 192kts
09-Mar-18 11:12 37.669432 -122.396422 57 3139ft 225kts
09-Mar-18 11:13 37.686619 -122.315740 70 6241ft 258kts
09-Mar-18 11:14 37.712085 -122.231997 66 10217ft 259kts
09-Mar-18 11:15 37.755967 -122.140431 53 11327ft 366kts
09-Mar-18 11:16 37.815172 -122.026131 55 14277ft 413kts
09-Mar-18 11:17 37.869998 -121.894276 63 17405ft 439kts
09-Mar-18 11:18 37.926124 -121.752481 62 20219ft 466kts
09-Mar-18 11:19 37.985417 -121.601942 62 22768ft 491kts
09-Mar-18 11:20 38.047469 -121.443619 61 25057ft 514kts
09-Mar-18 11:21 38.102102 -121.303566 62 26756ft 534kts
09-Mar-18 11:22 38.166843 -121.136743 62 28545ft 554kts
09-Mar-18 11:23 38.217326 -120.950219 79 30315ft 571kts
09-Mar-18 11:24 38.245814 -120.754242 80 32363ft 575kts
09-Mar-18 11:25 38.273955 -120.553446 79 34223ft 579kts
09-Mar-18 11:26 38.301613 -120.353290 79 35088ft 573kts
09-Mar-18 11:27 38.327740 -120.161712 80 35100ft 572kts
09-Mar-18 11:28 38.354425 -119.963497 80 35089ft 571kts
09-Mar-18 11:29 38.380924 -119.764032 80 35052ft 570kts
09-Mar-18 11:30 38.406903 -119.565819 80 35056ft 570kts
09-Mar-18 11:31 38.432654 -119.366626 80 35060ft 569kts
09-Mar-18 11:32 38.457933 -119.168355 81 35045ft 568kts
09-Mar-18 11:33 38.482905 -118.969730 81 35048ft 568kts
09-Mar-18 11:34 38.507505 -118.771259 81 35052ft 567kts
09-Mar-18 11:35 38.531714 -118.573114 81 35056ft 566kts
09-Mar-18 11:36 38.555633 -118.374470 81 35060ft 566kts
09-Mar-18 11:37 38.578441 -118.182255 81 35046ft 565kts
09-Mar-18 11:38 38.601563 -117.984551 81 35075ft 565kts
09-Mar-18 11:39 38.624325 -117.786925 81 35053ft 564kts
09-Mar-18 11:40 38.646890 -117.587986 81 35084ft 565kts
09-Mar-18 11:41 38.669002 -117.389940 81 35087ft 564kts
09-Mar-18 11:42 38.696725 -117.194880 77 35051ft 558kts
09-Mar-18 11:43 38.730230 -116.998762 77 35072ft 563kts
09-Mar-18 11:44 38.763133 -116.803391 77 35080ft 562kts
09-Mar-18 11:45 38.795695 -116.607900 77 35083ft 562kts
09-Mar-18 11:46 38.827874 -116.412574 77 35087ft 561kts
09-Mar-18 11:47 38.859452 -116.218802 77 35073ft 560kts
09-Mar-18 11:48 38.890980 -116.023146 77 35076ft 560kts
09-Mar-18 11:49 38.922112 -115.827744 77 35079ft 560kts
09-Mar-18 11:50 38.952819 -115.632761 77 35082ft 559kts
09-Mar-18 11:51 38.983240 -115.437453 77 35086ft 558kts
09-Mar-18 11:52 39.011772 -115.252195 77 35071ft 558kts
09-Mar-18 11:53 39.041400 -115.057558 77 35075ft 558kts
09-Mar-18 11:54 39.070815 -114.862015 77 35078ft 557kts
09-Mar-18 11:55 39.099944 -114.666031 77 35082ft 557kts
09-Mar-18 11:56 39.128461 -114.471914 78 35083ft 557kts
09-Mar-18 11:57 39.156005 -114.282065 78 35066ft 556kts
09-Mar-18 11:58 39.184066 -114.086265 78 35073ft 557kts
09-Mar-18 11:59 39.211789 -113.890407 78 35076ft 556kts
09-Mar-18 12:00 39.239100 -113.695011 78 35051ft 556kts
09-Mar-18 12:01 39.266170 -113.498833 78 35056ft 556kts
09-Mar-18 12:02 39.291140 -113.315611 79 35043ft 556kts
09-Mar-18 12:03 39.315233 -113.159084 76 35041ft 548kts
09-Mar-18 12:04 39.347458 -112.966490 76 35048ft 550kts
09-Mar-18 12:04 39.374011 -112.805890 76 35051ft 549kts
09-Mar-18 12:06 39.410809 -112.580861 76 35054ft 549kts
09-Mar-18 12:07 39.440701 -112.395905 76 35057ft 549kts
09-Mar-18 12:07 39.466533 -112.234468 77 35044ft 549kts
09-Mar-18 12:09 39.501746 -112.011908 77 35048ft 550kts
09-Mar-18 12:09 39.525788 -111.858257 77 35050ft 550kts
09-Mar-18 12:10 39.555709 -111.665041 77 35053ft 549kts
09-Mar-18 12:11 39.585425 -111.470925 77 35029ft 550kts
09-Mar-18 12:12 39.614710 -111.277363 77 35015ft 550kts
09-Mar-18 12:13 39.643706 -111.083395 77 35020ft 550kts
09-Mar-18 12:14 39.672426 -110.888947 77 35023ft 550kts
09-Mar-18 12:16 39.700849 -110.694162 77 35026ft 550kts
09-Mar-18 12:17 39.728880 -110.499671 77 35029ft 550kts
09-Mar-18 12:18 39.756733 -110.304003 78 35014ft 550kts
09-Mar-18 12:19 39.784032 -110.109779 78 35019ft 550kts
09-Mar-18 12:20 39.810995 -109.915480 78 34995ft 550kts
09-Mar-18 12:21 39.837828 -109.719592 78 34998ft 550kts
09-Mar-18 12:22 39.864237 -109.524156 77 34994ft 553kts
09-Mar-18 12:23 39.889906 -109.331892 78 35017ft 557kts
09-Mar-18 12:24 39.916088 -109.133045 77 35019ft 557kts
09-Mar-18 12:25 39.941850 -108.934671 77 35021ft 556kts
09-Mar-18 12:26 39.967231 -108.736461 77 35025ft 556kts
09-Mar-18 12:27 39.992180 -108.538855 77 35028ft 556kts
09-Mar-18 12:28 40.016413 -108.344179 78 35030ft 556kts
09-Mar-18 12:29 40.040767 -108.145754 78 35018ft 555kts
09-Mar-18 12:30 40.063456 -107.958175 78 35020ft 555kts
09-Mar-18 12:31 40.087367 -107.760409 75 35024ft 553kts
09-Mar-18 12:32 40.135467 -107.578086 68 35047ft 543kts
09-Mar-18 12:33 40.175183 -107.391014 70 35036ft 539kts
09-Mar-18 12:34 40.212606 -107.203074 71 34410ft 528kts
09-Mar-18 12:35 40.248712 -107.019652 71 33325ft 524kts
09-Mar-18 12:36 40.284548 -106.835782 71 32274ft 523kts
09-Mar-18 12:37 40.319995 -106.652208 71 31198ft 523kts
09-Mar-18 12:38 40.355473 -106.466824 71 29945ft 526kts
09-Mar-18 12:39 40.390175 -106.283774 72 27790ft 524kts
09-Mar-18 12:40 40.423774 -106.104878 72 25083ft 506kts
09-Mar-18 12:41 40.432756 -105.928651 98 24027ft 483kts
09-Mar-18 12:42 40.407927 -105.758451 100 22472ft 469kts
09-Mar-18 12:43 40.381802 -105.593296 100 20907ft 457kts
09-Mar-18 12:44 40.356767 -105.436944 99 20197ft 426kts
09-Mar-18 12:45 40.337372 -105.288758 99 18695ft 414kts
09-Mar-18 12:46 40.316870 -105.142155 99 17362ft 405kts
09-Mar-18 12:47 40.295907 -104.999466 98 16041ft 395kts
09-Mar-18 12:48 40.253544 -104.872600 138 14741ft 381kts
09-Mar-18 12:49 40.163165 -104.839468 187 14441ft 321kts
09-Mar-18 12:50 40.075096 -104.844400 187 13456ft 314kts
09-Mar-18 12:51 39.988518 -104.850652 186 12296ft 314kts
09-Mar-18 12:52 39.904883 -104.862748 187 11824ft 289kts
09-Mar-18 12:53 39.829649 -104.874803 187 11251ft 267kts
09-Mar-18 12:54 39.758351 -104.888054 187 10660ft 242kts
09-Mar-18 12:55 39.701160 -104.870753 119 9573ft 224kts
09-Mar-18 12:56 39.697039 -104.795005 87 8995ft 207kts
09-Mar-18 12:57 39.713518 -104.725847 62 7893ft 198kts
09-Mar-18 12:58 39.747467 -104.669228 46 7347ft 196kts
09-Mar-18 12:59 39.795283 -104.660794 359 6095ft 159kts
09-Mar-18 13:00 39.836654 -104.660480 3 5444ft 137kts
09-Mar-18 13:01 39.853281 -104.661882 332 5442ft 8kts
09-Mar-18 13:02 39.856207 -104.667528 281 5442ft 24kts
09-Mar-18 13:03 39.858033 -104.669630 3 5442ft 0kts

Navigation Log

Ident Type
1. KSFO Airport
2. TIPRE Fix
3. INSLO Fix
4. GAROT Fix
5. EKR Navaid
6. KDEN Airport